Latest Weather Observations for Kyabram

IDV60801

Issued at 9:31 pm EDT Thursday 11 February 2016 (issued every 30 minutes, with the page automatically refreshed every 10 minutes)

About weather observations | Map of weather stations | Latest weather observations for VIC | Other Formats
Station Details ID: 080091 Name: KYABRAM Lat: -36.34 Lon: 145.06 Height: 105.0 m
Data from the previous 72 hours. | See also: Recent months at Kyabram
Date/Time
EDT
Temp
°C
App
Temp
°C
Dew
Point
Rel
Hum
%
Delta-T
°C
Wind Press
QNH
hPa
Press
MSL
hPa
Rain
since 9 am
mm
Dir
 
Spd
km/h
Gust
km/h
Spd
kts
Gust
kts
11/09:30pm 23.6 21.0 13.2 52 6.0 SSW 19 32 10 17 - - 0.0
11/09:00pm 24.9 22.4 12.2 45 7.3 SW 17 26 9 14 - - 0.0
11/08:30pm 26.1 23.3 11.4 39 8.4 SW 17 26 9 14 - - 0.0
11/08:00pm 27.5 24.9 10.7 35 9.5 SW 15 30 8 16 - - 0.0
11/07:30pm 29.2 26.5 10.3 31 10.7 SW 15 24 8 13 - - 0.0
11/07:00pm 30.6 28.0 9.5 27 11.9 SW 13 20 7 11 - - 0.0
11/06:30pm 31.4 29.1 9.0 25 12.6 SW 11 20 6 11 - - 0.0
11/06:00pm 32.0 29.1 9.5 25 12.8 WSW 15 24 8 13 - - 0.0
11/05:30pm 32.4 29.4 9.2 24 13.1 WSW 15 26 8 14 - - 0.0
11/05:00pm 32.5 29.7 8.7 23 13.4 WSW 13 22 7 12 - - 0.0
11/04:30pm 32.0 29.4 9.5 25 12.8 SW 13 24 7 13 - - 0.0
11/04:00pm 31.9 30.5 9.4 25 12.8 SSW 7 20 4 11 - - 0.0
11/03:30pm 32.5 30.4 11.1 27 12.5 SW 13 20 7 11 - - 0.0
11/03:00pm 31.7 29.6 11.0 28 12.0 SW 13 20 7 11 - - 0.0
11/02:30pm 30.7 28.3 10.1 28 11.8 SW 13 20 7 11 - - 0.0
11/02:00pm 30.6 28.3 10.5 29 11.5 WSW 13 19 7 10 - - 0.0
11/01:30pm 30.2 27.5 9.1 27 11.8 SSW 13 24 7 13 - - 0.0
11/01:00pm 29.2 26.5 10.3 31 10.7 SSW 15 24 8 13 - - 0.0
11/12:30pm 28.1 25.4 10.3 33 10.1 SSW 15 22 8 12 - - 0.0
11/12:00pm 27.3 24.9 11.3 37 9.2 SSW 15 26 8 14 - - 0.0
11/11:30am 26.2 23.3 12.3 42 8.1 SSW 19 28 10 15 - - 0.0
11/11:00am 25.0 22.7 12.9 47 7.0 S 17 28 9 15 - - 0.0
11/10:30am 23.7 21.3 12.7 50 6.3 S 17 26 9 14 - - 0.0
11/10:00am 22.8 20.3 13.6 56 5.4 S 19 30 10 16 - - 0.0
11/09:30am 21.5 19.3 13.2 59 4.8 SSW 17 28 9 15 - - 0.0
11/09:00am 20.4 18.3 13.6 65 3.9 SSW 17 30 9 16 - - 0.0
11/08:30am 18.9 16.1 13.1 69 3.3 SSW 20 35 11 19 - - 0.0
11/08:00am 18.0 15.8 13.3 74 2.7 SW 17 26 9 14 - - 0.0
11/07:30am 16.9 15.4 13.0 78 2.2 SW 13 20 7 11 - - 0.0
11/07:00am 16.1 14.5 12.7 80 1.9 SW 13 19 7 10 - - 0.0
11/06:30am 16.2 14.9 12.6 79 2.0 SW 11 17 6 9 - - 0.0
11/06:00am 16.1 14.8 12.5 79 2.0 SW 11 17 6 9 - - 0.0
11/05:30am 16.3 14.9 12.3 77 2.2 SW 11 19 6 10 - - 0.0
11/05:00am 16.4 14.6 12.2 76 2.3 SW 13 19 7 10 - - 0.0
11/04:30am 16.7 14.9 12.0 74 2.6 SW 13 20 7 11 - - 0.0
11/04:00am 16.9 15.4 12.0 73 2.7 SW 11 17 6 9 - - 0.0
11/03:30am 17.2 15.8 12.1 72 2.8 SW 11 17 6 9 - - 0.0
11/03:00am 17.4 15.7 12.5 73 2.7 SW 13 19 7 10 - - 0.0
11/02:30am 17.5 16.3 12.8 74 2.6 SSW 11 19 6 10 - - 0.0
11/02:00am 17.9 16.4 13.0 73 2.8 SW 13 20 7 11 - - 0.0
11/01:30am 18.2 17.2 12.2 68 3.3 SW 9 15 5 8 - - 0.0
11/01:00am 19.2 18.1 12.0 63 4.0 SSW 9 17 5 9 - - 0.0
11/12:30am 19.9 18.4 11.9 60 4.5 SW 11 17 6 9 - - 0.0
11/12:00am 20.8 19.4 12.2 58 4.8 SW 11 17 6 9 - - 0.0
 
Date/Time
EDT
Temp
°C
App
Temp
°C
Dew
Point
Rel
Hum
%
Delta-T
°C
Wind Press
QNH
hPa
Press
MSL
hPa
Rain
since 9 am
mm
Dir
 
Spd
km/h
Gust
km/h
Spd
kts
Gust
kts
10/11:30pm 21.1 20.0 12.0 56 5.1 SW 9 17 5 9 - - 0.0
10/11:00pm 21.8 20.0 10.9 50 6.0 SW 11 19 6 10 - - 0.0
10/10:30pm 22.2 20.7 10.4 47 6.5 SW 9 11 5 6 - - 0.0
10/10:00pm 23.6 22.0 10.3 43 7.4 SW 9 17 5 9 - - 0.0
10/09:30pm 24.3 23.1 11.6 45 7.2 SW 9 15 5 8 - - 0.0
10/09:00pm 24.6 23.5 10.5 41 7.9 SW 7 15 4 8 - - 0.0
10/08:30pm 26.0 23.3 8.9 34 9.3 SW 13 24 7 13 - - 0.0
10/08:00pm 27.6 25.4 9.4 32 10.1 SW 11 19 6 10 - - 0.0
10/07:30pm 29.0 25.7 8.1 27 11.4 SSW 15 26 8 14 - - 0.0
10/07:00pm 30.7 27.4 6.6 22 13.0 SSW 13 22 7 12 - - 0.0
10/06:30pm 31.1 28.1 7.5 23 12.9 SSW 13 20 7 11 - - 0.0
10/06:00pm 31.8 29.7 8.1 23 13.2 SSW 9 17 5 9 - - 0.0
10/05:30pm 32.2 30.0 7.8 22 13.5 SSW 9 17 5 9 - - 0.0
10/05:00pm 32.8 29.5 4.6 17 14.9 SSW 11 20 6 11 - - 0.0
10/04:30pm 32.4 29.4 5.8 19 14.3 SW 11 20 6 11 - - 0.0
10/04:00pm 33.4 30.3 7.4 20 14.4 SW 13 20 7 11 - - 0.0
10/03:30pm 32.4 29.0 5.8 19 14.3 SW 13 22 7 12 - - 0.0
10/03:00pm 32.3 29.2 7.2 21 13.8 WSW 13 22 7 12 - - 0.0
10/02:30pm 32.5 30.9 8.7 23 13.4 WSW 7 22 4 12 - - 0.0
10/02:00pm 32.2 29.0 8.4 23 13.3 WSW 15 22 8 12 - - 0.0
10/01:30pm 31.2 28.9 10.5 28 11.9 WSW 13 26 7 14 - - 0.0
10/01:00pm 30.6 29.4 11.5 30 11.1 WSW 9 15 5 8 - - 0.0
10/12:30pm 29.7 28.4 12.6 35 10.1 WSW 11 17 6 9 - - 0.0
10/12:00pm 28.6 29.0 15.2 44 8.2 SW 7 13 4 7 - - 0.0
10/11:30am 26.4 26.2 14.8 49 7.0 WSW 9 17 5 9 - - 0.0
10/11:00am 25.8 25.8 15.2 52 6.4 SW 9 15 5 8 - - 0.0
10/10:30am 24.6 24.3 15.5 57 5.5 WSW 11 17 6 9 - - 0.0
10/10:00am 24.2 24.6 16.2 61 4.9 SSW 9 13 5 7 - - 0.0
10/09:30am 22.4 22.6 15.7 66 4.0 SSW 9 17 5 9 - - 0.0
10/09:00am 20.8 20.7 16.0 74 2.9 SW 11 15 6 8 - - 0.0
10/08:30am 19.4 20.1 16.1 81 2.0 SW 7 13 4 7 - - 0.0
10/08:00am 18.1 18.8 15.7 86 1.4 SW 6 11 3 6 - - 0.0
10/07:30am 16.8 17.4 15.2 90 0.9 SSW 6 9 3 5 - - 0.0
10/07:00am 15.5 15.8 14.5 94 0.6 SSW 6 11 3 6 - - 0.0
10/06:30am 15.5 15.8 14.4 93 0.6 SW 6 9 3 5 - - 0.0
10/06:00am 15.5 15.8 14.4 93 0.6 SW 6 9 3 5 - - 0.0
10/05:30am 15.6 16.9 14.1 91 0.9 CALM 0 0 0 0 - - 0.0
10/05:00am 15.8 17.1 14.2 90 0.9 CALM 0 0 0 0 - - 0.0
10/04:30am 16.0 16.9 14.0 88 1.1 WSW 2 6 1 3 - - 0.0
10/04:00am 16.8 16.9 14.4 86 1.4 SW 7 11 4 6 - - 0.0
10/03:30am 17.0 17.2 14.3 84 1.6 SW 6 9 3 5 - - 0.0
10/03:00am 17.2 18.2 14.3 83 1.7 SW 2 11 1 6 - - 0.0
10/02:30am 17.7 17.8 14.4 81 1.9 SSW 7 9 4 5 - - 0.0
10/02:00am 18.1 18.2 14.4 79 2.1 SSW 7 9 4 5 - - 0.0
10/01:30am 18.5 18.2 14.4 77 2.4 SSW 9 15 5 8 - - 0.0
10/01:00am 19.1 19.2 14.4 74 2.7 SSW 7 11 4 6 - - 0.0
10/12:30am 19.7 19.4 14.5 72 3.0 SSW 9 11 5 6 - - 0.0
10/12:00am 20.6 20.7 14.5 68 3.6 SW 7 13 4 7 - - 0.0
 
Date/Time
EDT
Temp
°C
App
Temp
°C
Dew
Point
Rel
Hum
%
Delta-T
°C
Wind Press
QNH
hPa
Press
MSL
hPa
Rain
since 9 am
mm
Dir
 
Spd
km/h
Gust
km/h
Spd
kts
Gust
kts
09/11:30pm 21.6 21.7 14.5 64 4.2 SSW 7 13 4 7 - - 0.0
09/11:00pm 23.2 23.2 14.2 57 5.3 S 7 11 4 6 - - 0.0
09/10:30pm 24.6 24.1 13.8 51 6.4 S 9 13 5 7 - - 0.0
09/10:00pm 24.4 24.6 10.7 42 7.7 CALM 0 2 0 1 - - 0.0
09/09:30pm 24.2 24.4 10.5 42 7.6 CALM 0 0 0 0 - - 0.0
09/09:00pm 26.2 25.9 8.7 33 9.5 CALM 0 0 0 0 - - 0.0
09/08:30pm 27.7 27.4 8.6 30 10.5 CALM 0 0 0 0 - - 0.0
09/08:00pm 29.7 29.3 8.2 26 11.8 CALM 0 0 0 0 - - 0.0
09/07:30pm 31.6 31.6 9.8 26 12.4 CALM 0 0 0 0 - - 0.0
09/07:00pm 32.3 31.0 9.2 24 13.1 SSW 6 11 3 6 - - 0.0
09/06:30pm 32.7 31.9 8.2 22 13.7 SSW 2 9 1 5 - - 0.0
09/06:00pm 32.9 32.2 7.0 20 14.2 CALM 0 7 0 4 - - 0.0
09/05:30pm 33.1 30.7 7.1 20 14.3 SW 9 15 5 8 - - 0.0
09/05:00pm 32.9 31.8 7.0 20 14.2 S 2 11 1 6 - - 0.0
09/04:30pm 33.2 31.7 9.3 23 13.6 W 7 15 4 8 - - 0.0
09/04:00pm 32.6 31.3 10.0 25 13.0 W 7 13 4 7 - - 0.0
09/03:30pm 32.4 31.2 10.4 26 12.7 SW 7 17 4 9 - - 0.0
09/03:00pm 31.9 31.0 10.6 27 12.3 WSW 6 17 3 9 - - 0.0
09/02:30pm 31.0 29.8 10.4 28 11.8 SW 7 13 4 7 - - 0.0
09/02:00pm 30.9 31.1 11.8 31 11.2 N 2 11 1 6 - - 0.0
09/01:30pm 30.7 31.8 13.5 35 10.3 CALM 0 0 0 0 - - 0.0
09/01:00pm 28.8 29.3 12.7 37 9.5 SSE 2 11 1 6 - - 0.0
09/12:30pm 28.0 28.9 12.8 39 8.9 CALM 0 0 0 0 - - 0.0
09/12:00pm 28.0 29.1 13.5 41 8.6 CALM 0 0 0 0 - - 0.0
09/11:30am 26.2 25.5 11.9 41 8.2 S 7 13 4 7 - - 0.0
09/11:00am 25.5 24.0 12.0 43 7.8 SSE 11 19 6 10 - - 0.0
09/10:30am 24.4 22.4 11.4 44 7.4 SSE 13 19 7 10 - - 0.0
09/10:00am 23.0 20.8 10.8 46 6.8 SSW 13 19 7 10 - - 0.0
09/09:30am 21.2 19.1 11.0 52 5.6 SSW 13 22 7 12 - - 0.0
09/09:00am 20.1 18.4 11.3 57 4.9 S 11 17 6 9 - - 0.0
09/08:30am 18.6 16.7 11.9 65 3.7 S 13 20 7 11 - - 0.0
09/08:00am 17.5 15.5 11.5 68 3.3 S 13 26 7 14 - - 0.0
09/07:30am 16.5 14.5 11.4 72 2.8 S 13 22 7 12 - - 0.0
09/07:00am 15.5 13.8 11.3 76 2.3 S 11 19 6 10 - - 0.0
09/06:30am 15.5 13.8 11.1 75 2.4 S 11 19 6 10 - - 0.0
09/06:00am 15.3 13.6 11.3 77 2.2 S 11 19 6 10 - - 0.0
09/05:30am 15.5 13.9 11.5 77 2.2 SSW 11 19 6 10 - - 0.0
09/05:00am 15.4 13.8 11.6 78 2.1 SSW 11 19 6 10 - - 0.0
09/04:30am 15.3 13.7 11.5 78 2.1 SSW 11 17 6 9 - - 0.0
09/04:00am 15.4 13.8 11.6 78 2.1 SSW 11 17 6 9 - - 0.0
09/03:30am 15.7 14.5 11.7 77 2.2 SSW 9 19 5 10 - - 0.0
09/03:00am 16.1 14.2 11.9 76 2.3 SW 13 20 7 11 - - 0.0
09/02:30am 16.3 14.0 11.9 75 2.4 SSW 15 22 8 12 - - 0.0
09/02:00am 16.5 13.8 11.6 73 2.7 SSW 17 30 9 16 - - 0.0
09/01:30am 16.7 14.2 12.3 75 2.4 SW 17 24 9 13 - - 0.0
09/01:00am 17.1 15.1 12.6 75 2.5 SW 15 22 8 12 - - 0.0
09/12:30am 17.2 15.6 12.9 76 2.4 SW 13 24 7 13 - - 0.0
09/12:00am 17.6 16.4 12.9 74 2.6 SW 11 17 6 9 - - 0.0
 
Date/Time
EDT
Temp
°C
App
Temp
°C
Dew
Point
Rel
Hum
%
Delta-T
°C
Wind Press
QNH
hPa
Press
MSL
hPa
Rain
since 9 am
mm
Dir
 
Spd
km/h
Gust
km/h
Spd
kts
Gust
kts
08/11:30pm 18.5 17.3 12.7 69 3.3 SW 11 20 6 11 - - 0.0
08/11:00pm 19.4 17.8 11.7 61 4.3 SW 11 22 6 12 - - 0.0
08/10:30pm 20.5 18.0 11.2 55 5.1 SW 15 24 8 13 - - 0.0
08/10:00pm 21.3 19.2 11.1 52 5.7 SW 13 24 7 13 - - 0.0

Other Formats:

Comma delimited format used in spreadsheet applications
http://www.bom.gov.au/fwo/IDV60801/IDV60801.95833.axf

JavaScript Object Notation format (JSON) in row-major order
http://www.bom.gov.au/fwo/IDV60801/IDV60801.95833.json